Time;durP1;ratioP1;P1;durP2;ratioP2;P2;SDS_P1;SDS_P2;PMS_P1;PMS_P2;Temp;Humidity;BMP_temperature;BMP_pressure;BME280_temperature;BME280_humidity;BME280_pressure;Samples;Min_cycle;Max_cycle;Signal;HPM_P1;HPM_P2
2022/01/26 00:07:08;;;;;;;36.90;16.45;;;;;;;1.29;100.00;100435.47;6134194;23;20045;-79
2022/01/26 00:09:35;;;;;;;36.25;14.80;;;;;;;1.33;100.00;100431.88;6134258;23;20022;-79
2022/01/26 00:12:03;;;;;;;35.10;15.10;;;;;;;1.32;100.00;100429.25;6134272;23;20030;-79
2022/01/26 00:14:31;;;;;;;34.72;16.15;;;;;;;1.26;100.00;100435.50;6133641;23;20335;-79
2022/01/26 00:17:00;;;;;;;39.95;16.80;;;;;;;1.26;100.00;100449.69;6134357;23;20343;-79
2022/01/26 00:19:43;;;;;;;29.92;14.23;;;;;;;1.25;100.00;100447.03;6134096;23;20022;-79
2022/01/26 00:22:23;;;;;;;32.13;14.73;;;;;;;1.24;100.00;100451.50;6134193;23;20026;-78
2022/01/26 00:25:06;;;;;;;30.98;13.55;;;;;;;1.23;100.00;100447.06;6134119;23;20064;-79
2022/01/26 00:27:49;;;;;;;32.83;14.60;;;;;;;1.32;100.00;100448.75;6163564;23;20025;-79
2022/01/26 00:38:38;;;;;;;28.67;13.25;;;;;;;1.32;100.00;100448.75;6163389;23;20029;-79
2022/01/26 00:41:08;;;;;;;32.63;15.48;;;;;;;1.28;100.00;100453.22;6246392;23;20040;-78
2022/01/26 00:43:38;;;;;;;34.15;13.50;;;;;;;1.17;100.00;100463.06;6255999;23;20015;-79
2022/01/26 00:46:07;;;;;;;31.85;14.68;;;;;;;1.18;100.00;100466.63;6256025;23;20043;-78
2022/01/26 00:48:37;;;;;;;31.40;14.73;;;;;;;1.16;100.00;100469.28;6256386;23;20370;-78
2022/01/26 00:51:06;;;;;;;33.45;15.40;;;;;;;1.17;100.00;100462.19;6256158;23;20012;-79
2022/01/26 00:53:40;;;;;;;30.13;15.25;;;;;;;1.14;100.00;100466.63;6256135;23;20040;-79
2022/01/26 00:56:10;;;;;;;34.72;15.43;;;;;;;1.16;100.00;100466.59;6256281;23;20016;-79
2022/01/26 00:58:37;;;;;;;34.78;15.90;;;;;;;1.20;100.00;100462.16;6255759;23;20024;-79
2022/01/26 01:01:05;;;;;;;29.77;13.52;;;;;;;1.23;100.00;100464.78;6256063;23;20344;-79
2022/01/26 01:03:36;;;;;;;32.20;16.33;;;;;;;1.14;100.00;100466.63;6255999;23;20023;-78
2022/01/26 01:06:10;;;;;;;40.58;17.55;;;;;;;1.06;100.00;100460.50;6255951;23;20028;-78
2022/01/26 01:08:40;;;;;;;40.53;18.88;;;;;;;1.10;100.00;100459.56;6256071;23;20042;-79
2022/01/26 01:11:09;;;;;;;33.15;16.23;;;;;;;1.10;100.00;100467.56;6256385;23;20016;-79
2022/01/26 01:13:39;;;;;;;31.48;14.45;;;;;;;1.12;100.00;100452.47;6255543;23;20027;-78
2022/01/26 01:16:08;;;;;;;28.25;13.95;;;;;;;1.10;100.00;100456.03;6256151;23;20020;-80
2022/01/26 01:18:43;;;;;;;31.38;15.60;;;;;;;1.14;100.00;100458.66;6256081;23;20027;-79
2022/01/26 01:24:15;;;;;;;28.42;12.68;;;;;;;1.09;100.00;100451.59;6243170;23;20027;-79
2022/01/26 01:26:59;;;;;;;26.40;12.93;;;;;;;1.11;100.00;100453.38;6232528;23;20082;-80
2022/01/26 01:29:29;;;;;;;32.35;14.35;;;;;;;1.04;100.00;100450.75;6225525;23;20344;-79
2022/01/26 01:31:59;;;;;;;27.05;12.85;;;;;;;1.00;100.00;100447.22;6225254;23;20024;-79
2022/01/26 01:34:34;;;;;;;25.63;11.80;;;;;;;1.01;100.00;100452.53;6225428;23;20043;-79
2022/01/26 01:37:05;;;;;;;30.65;13.65;;;;;;;0.99;100.00;100443.69;6225627;23;20017;-79
2022/01/26 01:39:35;;;;;;;26.02;12.88;;;;;;;1.03;100.00;100443.66;6225544;23;20024;-79
2022/01/26 01:42:04;;;;;;;25.20;12.55;;;;;;;0.97;100.00;100441.91;6225004;23;20017;-79
2022/01/26 01:44:32;;;;;;;27.80;13.00;;;;;;;0.96;100.00;100442.81;6225350;23;20017;-80
2022/01/26 01:46:59;;;;;;;27.73;13.02;;;;;;;0.98;100.00;100444.59;6224345;23;20119;-80
2022/01/26 01:49:27;;;;;;;27.13;12.88;;;;;;;0.98;100.00;100443.69;6224403;23;20067;-79
2022/01/26 01:51:58;;;;;;;27.45;12.38;;;;;;;0.96;100.00;100445.47;6225493;23;20021;-80
2022/01/26 01:54:26;;;;;;;28.80;14.20;;;;;;;0.95;100.00;100441.03;6225722;23;20016;-80
2022/01/26 01:56:58;;;;;;;27.08;13.13;;;;;;;0.95;100.00;100439.28;6225156;23;20017;-79
2022/01/26 01:59:29;;;;;;;30.90;14.35;;;;;;;0.97;100.00;100441.91;6188622;23;20344;-79
2022/01/26 02:01:57;;;;;;;27.48;14.05;;;;;;;0.90;100.00;100434.88;6225497;23;20020;-79
2022/01/26 02:04:24;;;;;;;29.25;13.52;;;;;;;0.84;100.00;100434.03;6225362;23;20017;-79
2022/01/26 02:06:52;;;;;;;25.63;12.52;;;;;;;0.85;100.00;100438.47;6225456;23;20027;-79
2022/01/26 02:09:20;;;;;;;29.77;13.55;;;;;;;0.89;100.00;100436.66;6225448;23;20079;-79
2022/01/26 02:11:49;;;;;;;28.25;13.45;;;;;;;0.96;100.00;100424.19;6225084;23;20367;-79
2022/01/26 02:14:24;;;;;;;31.00;14.63;;;;;;;1.05;100.00;100429.47;6225370;23;20456;-79
2022/01/26 02:16:59;;;;;;;34.38;15.40;;;;;;;1.06;100.00;100427.66;6225632;23;20087;-79
2022/01/26 02:19:55;;;;;;;28.17;12.27;;;;;;;0.91;100.00;100428.66;6227243;23;20021;-80
2022/01/26 02:52:57;;;;;;;46.35;20.88;;;;;;;1.08;100.00;100442.75;6203016;23;20017;-79
2022/01/26 02:55:42;;;;;;;47.17;21.77;;;;;;;1.11;100.00;100442.72;6226582;23;20452;-80
2022/01/26 02:58:38;;;;;;;50.25;26.23;;;;;;;1.10;100.00;100440.06;6227102;23;20017;-79
2022/01/26 03:01:33;;;;;;;50.78;28.25;;;;;;;1.04;100.00;100434.78;6226925;23;20021;-79
2022/01/26 03:04:07;;;;;;;39.72;20.40;;;;;;;1.07;100.00;100440.06;6226908;23;20084;-80
2022/01/26 03:06:47;;;;;;;31.02;15.52;;;;;;;0.99;100.00;100437.47;6226852;23;20027;-79
2022/01/26 03:09:19;;;;;;;33.03;14.48;;;;;;;0.95;100.00;100436.63;6226525;23;20020;-79
2022/01/26 03:11:48;;;;;;;27.98;14.00;;;;;;;0.93;100.00;100433.09;6226931;23;20020;-79
2022/01/26 03:14:25;;;;;;;26.95;13.25;;;;;;;0.89;100.00;100431.34;6227178;23;20063;-79
2022/01/26 03:16:58;;;;;;;26.67;13.00;;;;;;;0.88;100.00;100432.25;6226867;23;20016;-79
2022/01/26 03:19:34;;;;;;;28.00;12.98;;;;;;;0.85;100.00;100429.63;6226768;23;20070;-79
2022/01/26 03:28:06;;;;;;;27.23;13.27;;;;;;;0.85;100.00;100430.47;6226718;23;20028;-79
2022/01/26 03:30:51;;;;;;;27.08;13.80;;;;;;;0.86;100.00;100432.25;6226654;23;20456;-79
2022/01/26 03:33:46;;;;;;;28.92;13.45;;;;;;;0.72;100.00;100432.34;6226633;23;20079;-79
2022/01/26 03:36:13;;;;;;;26.45;12.75;;;;;;;0.73;100.00;100435.88;6226474;23;20035;-79
2022/01/26 03:38:44;;;;;;;26.20;11.98;;;;;;;0.69;100.00;100431.50;6226133;23;20024;-79
2022/01/26 03:41:20;;;;;;;22.95;11.40;;;;;;;0.70;100.00;100423.47;6226467;23;20460;-79
2022/01/26 03:43:49;;;;;;;25.27;11.98;;;;;;;0.72;100.00;100415.50;6226507;23;20021;-79
2022/01/26 03:46:17;;;;;;;25.23;11.98;;;;;;;0.63;100.00;100419.09;6226487;23;20017;-78
2022/01/26 03:48:44;;;;;;;24.80;12.25;;;;;;;0.71;100.00;100429.69;6226363;23;20020;-80
2022/01/26 03:51:12;;;;;;;27.02;12.93;;;;;;;0.67;100.00;100419.97;6226496;23;20090;-79
2022/01/26 03:53:39;;;;;;;26.63;12.95;;;;;;;0.58;100.00;100426.22;6189341;23;20096;-79
2022/01/26 03:56:07;;;;;;;36.05;17.42;;;;;;;0.70;100.00;100419.94;6226528;23;20016;-79
2022/01/26 03:58:34;;;;;;;31.90;15.32;;;;;;;0.75;100.00;100417.25;6226362;23;20066;-79
2022/01/26 04:01:03;;;;;;;46.20;19.88;;;;;;;0.80;100.00;100418.09;6226264;23;20020;-79
2022/01/26 04:03:31;;;;;;;35.72;17.60;;;;;;;0.74;100.00;100420.81;6226311;23;20028;-80
2022/01/26 04:05:58;;;;;;;40.33;17.80;;;;;;;0.86;100.00;100418.06;6226475;23;20020;-79
2022/01/26 04:08:29;;;;;;;34.63;17.63;;;;;;;0.91;100.00;100416.25;6225773;23;20016;-79
2022/01/26 04:11:08;;;;;;;39.67;17.80;;;;;;;0.91;100.00;100418.03;6226239;23;20020;-79
2022/01/26 04:13:36;;;;;;;31.42;15.63;;;;;;;0.87;100.00;100422.50;6226291;23;20067;-79
2022/01/26 04:16:06;;;;;;;31.60;15.35;;;;;;;0.80;100.00;100416.34;6226191;23;20020;-79
2022/01/26 04:18:36;;;;;;;33.25;16.33;;;;;;;0.84;100.00;100409.22;6226512;23;20043;-79
2022/01/26 04:21:12;;;;;;;32.92;15.35;;;;;;;0.89;100.00;100420.72;6225605;23;20021;-79
2022/01/26 04:23:46;;;;;;;28.80;14.77;;;;;;;0.89;100.00;100410.06;6226126;23;20021;-79
2022/01/26 04:26:17;;;;;;;28.08;14.23;;;;;;;0.97;100.00;100417.97;6225927;23;20075;-79
2022/01/26 04:28:50;;;;;;;29.25;13.88;;;;;;;0.96;100.00;100414.44;6226026;23;20047;-79
2022/01/26 04:31:21;;;;;;;27.02;13.70;;;;;;;0.96;100.00;100413.53;6226043;23;20391;-80
2022/01/26 04:33:50;;;;;;;23.58;12.50;;;;;;;0.95;100.00;100415.34;6225916;23;20059;-79
2022/01/26 04:36:23;;;;;;;21.90;11.57;;;;;;;0.94;100.00;100410.03;6225591;23;20535;-79
2022/01/26 04:38:55;;;;;;;24.58;12.75;;;;;;;0.95;100.00;100412.69;6226061;23;20329;-79
2022/01/26 04:41:30;;;;;;;55.33;25.90;;;;;;;1.01;100.00;100417.06;6225577;23;20013;-79
2022/01/26 04:44:02;;;;;;;39.70;18.42;;;;;;;1.05;100.00;100417.94;6225835;23;20391;-79
2022/01/26 04:46:31;;;;;;;30.23;14.18;;;;;;;1.03;100.00;100409.97;6225794;23;20027;-79
2022/01/26 04:48:59;;;;;;;35.45;18.27;;;;;;;1.08;100.00;100409.91;6225903;23;20317;-79
2022/01/26 04:51:27;;;;;;;37.53;18.85;;;;;;;1.04;100.00;100411.75;6225426;23;20087;-80
2022/01/26 04:53:54;;;;;;;38.03;19.13;;;;;;;0.99;100.00;100411.75;6225801;23;20020;-79
2022/01/26 04:56:22;;;;;;;40.63;20.27;;;;;;;1.03;100.00;100412.63;6225743;23;20027;-79
2022/01/26 04:58:49;;;;;;;41.60;20.80;;;;;;;0.99;100.00;100410.88;6225798;23;20372;-80
2022/01/26 05:01:17;;;;;;;43.15;22.80;;;;;;;0.99;100.00;100417.09;6225687;23;20024;-79
2022/01/26 05:03:46;;;;;;;42.60;24.02;;;;;;;1.00;100.00;100410.88;6225614;23;20067;-79
2022/01/26 05:06:13;;;;;;;58.10;32.03;;;;;;;0.99;100.00;100405.53;6225014;23;20023;-79
2022/01/26 05:08:41;;;;;;;43.83;26.33;;;;;;;1.01;100.00;100409.06;6225502;23;20352;-81
2022/01/26 05:11:12;;;;;;;40.78;23.42;;;;;;;0.99;100.00;100419.75;6225578;23;20020;-79
2022/01/26 05:13:39;;;;;;;52.53;25.02;;;;;;;0.92;100.00;100415.38;6225589;23;20021;-79
2022/01/26 05:16:08;;;;;;;53.70;24.52;;;;;;;0.89;100.00;100418.06;6215982;23;20092;-79
2022/01/26 05:18:37;;;;;;;48.55;22.20;;;;;;;0.95;100.00;100418.00;6225672;23;20475;-78
2022/01/26 05:21:06;;;;;;;44.95;23.38;;;;;;;0.98;100.00;100414.41;6225444;23;20021;-80
2022/01/26 05:23:33;;;;;;;60.08;27.17;;;;;;;0.98;100.00;100410.00;6225471;23;20344;-79
2022/01/26 05:26:01;;;;;;;58.45;25.10;;;;;;;0.97;100.00;100410.88;6225349;23;20016;-79
2022/01/26 05:28:28;;;;;;;68.05;30.77;;;;;;;0.94;100.00;100408.25;6225625;23;20023;-79
2022/01/26 05:30:56;;;;;;;98.03;44.17;;;;;;;0.97;100.00;100408.22;6225608;23;20012;-79
2022/01/26 05:33:24;;;;;;;83.28;38.85;;;;;;;0.90;100.00;100408.28;6224879;23;20020;-79
2022/01/26 05:35:52;;;;;;;82.65;38.25;;;;;;;1.10;100.00;100405.47;6225647;23;20028;-79
2022/01/26 05:38:21;;;;;;;110.57;44.78;;;;;;;1.09;100.00;100406.34;6225478;23;20566;-79
2022/01/26 05:40:50;;;;;;;143.60;53.78;;;;;;;1.03;100.00;100407.31;6225465;23;20024;-79
2022/01/26 05:43:17;;;;;;;128.32;43.90;;;;;;;1.01;100.00;100406.41;6225507;23;20343;-79
2022/01/26 05:45:49;;;;;;;88.68;36.25;;;;;;;1.08;100.00;100405.50;6225696;23;20482;-79
2022/01/26 05:48:16;;;;;;;123.60;43.10;;;;;;;1.08;100.00;100415.25;6225142;23;20075;-78
2022/01/26 05:50:51;;;;;;;120.90;43.47;;;;;;;1.03;100.00;100414.41;6225526;23;20032;-79
2022/01/26 05:53:21;;;;;;;180.98;68.15;;;;;;;1.04;100.00;100408.19;6226349;23;20016;-79
2022/01/26 05:55:50;;;;;;;430.52;139.98;;;;;;;1.04;100.00;100403.75;6227740;23;20020;-79
2022/01/26 05:58:18;;;;;;;308.60;98.60;;;;;;;0.99;100.00;100406.44;6227632;23;20057;-79
2022/01/26 06:00:46;;;;;;;543.50;197.27;;;;;;;1.02;100.00;100405.53;6227461;23;20027;-79
2022/01/26 06:03:13;;;;;;;534.20;194.15;;;;;;;1.04;100.00;100403.75;6226941;23;20028;-78
2022/01/26 06:05:41;;;;;;;374.25;115.70;;;;;;;0.94;100.00;100407.34;6227472;23;20023;-79
2022/01/26 06:08:08;;;;;;;286.10;87.75;;;;;;;0.94;100.00;100407.34;6227781;23;20025;-79
2022/01/26 06:10:37;;;;;;;209.55;71.22;;;;;;;0.94;100.00;100396.72;6227361;23;20027;-78
2022/01/26 06:13:05;;;;;;;93.30;37.35;;;;;;;0.96;100.00;100410.88;6227317;23;20039;-79
2022/01/26 06:15:32;;;;;;;112.47;42.97;;;;;;;0.93;100.00;100409.16;6227372;23;20021;-79
2022/01/26 06:18:00;;;;;;;52.50;25.15;;;;;;;0.98;100.00;100404.69;6226995;23;20021;-78
2022/01/26 06:20:27;;;;;;;46.50;20.88;;;;;;;0.94;100.00;100408.25;6227285;23;20392;-77
2022/01/26 06:22:55;;;;;;;85.47;31.55;;;;;;;0.96;100.00;100405.56;6227122;23;20024;-74
2022/01/26 06:25:22;;;;;;;98.05;36.45;;;;;;;0.90;100.00;100402.97;6222218;23;20075;-79
2022/01/26 06:27:55;;;;;;;147.80;53.28;;;;;;;0.87;100.00;100409.19;6227410;23;20016;-80
2022/01/26 06:30:23;;;;;;;193.23;72.72;;;;;;;0.81;100.00;100406.56;6226544;23;20024;-79
2022/01/26 06:32:51;;;;;;;312.05;120.68;;;;;;;0.84;100.00;100407.44;6226690;23;20019;-78
2022/01/26 06:35:18;;;;;;;288.20;118.05;;;;;;;0.92;100.00;100409.16;6227165;23;20023;-79
2022/01/26 06:37:46;;;;;;;299.85;114.80;;;;;;;0.80;100.00;100407.47;6227191;23;20021;-80
2022/01/26 06:40:17;;;;;;;215.73;80.18;;;;;;;0.89;100.00;100409.16;6227255;23;20043;-79
2022/01/26 06:42:53;;;;;;;183.52;65.18;;;;;;;0.84;100.00;100407.44;6227141;23;20652;-79
2022/01/26 06:45:24;;;;;;;182.18;62.70;;;;;;;0.74;100.00;100405.75;6227108;23;20020;-79
2022/01/26 06:50:33;;;;;;;82.82;32.55;;;;;;;0.77;100.00;100404.81;6225900;23;20027;-79
2022/01/26 06:53:01;;;;;;;55.28;23.48;;;;;;;0.78;100.00;100410.13;6226944;23;20455;-79
2022/01/26 06:55:28;;;;;;;43.63;20.30;;;;;;;0.77;100.00;100403.06;6227203;23;20029;-79
2022/01/26 06:57:56;;;;;;;41.03;19.88;;;;;;;0.74;100.00;100405.75;6227060;23;20024;-80
2022/01/26 07:00:25;;;;;;;40.85;20.15;;;;;;;0.75;100.00;100407.50;6226508;23;20526;-79
2022/01/26 07:02:54;;;;;;;43.55;20.38;;;;;;;0.72;100.00;100402.22;6226752;23;20021;-79
2022/01/26 07:05:23;;;;;;;55.88;25.70;;;;;;;0.78;100.00;100403.94;6226795;23;20054;-78
2022/01/26 07:07:50;;;;;;;53.55;22.58;;;;;;;0.77;100.00;100411.03;6226913;23;20021;-80
2022/01/26 07:10:18;;;;;;;56.60;21.42;;;;;;;0.77;100.00;100411.03;6226926;23;20020;-79
2022/01/26 07:12:46;;;;;;;49.28;20.88;;;;;;;0.76;100.00;100403.06;6226832;23;20518;-79
2022/01/26 07:23:41;;;;;;;72.50;27.42;;;;;;;0.78;100.00;100402.16;6226815;23;20020;-79
2022/01/26 07:26:09;;;;;;;148.45;44.67;;;;;;;0.80;100.00;100405.69;6226595;23;20028;-79
2022/01/26 07:28:38;;;;;;;92.55;35.17;;;;;;;0.79;100.00;100398.59;6226724;23;20017;-79
2022/01/26 07:31:07;;;;;;;81.10;31.58;;;;;;;0.89;100.00;100398.53;6226170;23;20020;-80
2022/01/26 07:33:37;;;;;;;87.55;34.03;;;;;;;0.92;100.00;100403.81;6226693;23;20078;-80
2022/01/26 07:36:06;;;;;;;71.07;30.42;;;;;;;0.84;100.00;100403.91;6226570;23;20075;-79
2022/01/26 07:38:34;;;;;;;67.43;26.60;;;;;;;0.81;100.00;100404.81;6226558;23;20455;-80
2022/01/26 07:41:01;;;;;;;83.13;35.58;;;;;;;0.76;100.00;100406.63;6226927;23;20021;-79
2022/01/26 07:43:29;;;;;;;100.10;41.47;;;;;;;0.72;100.00;100404.88;6226522;23;20016;-79
2022/01/26 07:45:57;;;;;;;85.03;35.58;;;;;;;0.77;100.00;100404.81;6226112;23;20020;-79
2022/01/26 07:48:24;;;;;;;62.40;26.52;;;;;;;0.71;100.00;100403.97;6226424;23;20020;-79
2022/01/26 07:50:55;;;;;;;61.83;25.40;;;;;;;0.76;100.00;100408.38;6226471;23;20024;-79
2022/01/26 07:53:23;;;;;;;72.47;27.63;;;;;;;0.70;100.00;100404.88;6226369;23;20028;-80
2022/01/26 07:55:50;;;;;;;80.75;30.60;;;;;;;0.75;100.00;100406.59;6226485;23;20079;-80
2022/01/26 07:58:19;;;;;;;73.72;28.65;;;;;;;0.72;100.00;100402.22;6226041;23;20021;-79
2022/01/26 08:00:47;;;;;;;70.78;27.50;;;;;;;0.75;100.00;100395.97;6226380;23;20023;-79
2022/01/26 08:03:15;;;;;;;74.68;27.60;;;;;;;0.77;100.00;100396.84;6226141;23;20092;-80
2022/01/26 08:05:43;;;;;;;60.60;24.52;;;;;;;0.78;100.00;100399.50;6226309;23;20021;-79
2022/01/26 08:08:12;;;;;;;69.57;29.23;;;;;;;0.80;100.00;100397.72;6226303;23;20025;-79
2022/01/26 08:10:40;;;;;;;59.75;27.90;;;;;;;0.84;100.00;100399.44;6226193;23;20020;-80
2022/01/26 08:13:08;;;;;;;55.97;23.63;;;;;;;0.86;100.00;100405.66;6225778;23;20023;-79
2022/01/26 08:15:36;;;;;;;47.13;21.75;;;;;;;0.91;100.00;100402.06;6225748;23;20027;-79
2022/01/26 08:18:06;;;;;;;45.50;20.90;;;;;;;0.92;100.00;100401.16;6226137;23;20463;-79
2022/01/26 08:20:34;;;;;;;42.72;19.95;;;;;;;0.88;100.00;100394.09;6226170;23;20025;-79
2022/01/26 08:23:01;;;;;;;46.92;21.80;;;;;;;0.78;100.00;100395.94;6225999;23;20027;-79
2022/01/26 08:25:30;;;;;;;54.58;25.33;;;;;;;0.77;100.00;100389.75;6225914;23;20027;-79
2022/01/26 08:28:05;;;;;;;70.35;33.60;;;;;;;0.89;100.00;100395.88;6225516;23;20027;-79
2022/01/26 08:30:36;;;;;;;64.88;30.40;;;;;;;0.80;100.00;100389.75;6226046;23;20020;-80
2022/01/26 08:33:05;;;;;;;73.15;34.15;;;;;;;0.90;100.00;100397.63;6225922;23;20474;-79
2022/01/26 08:35:33;;;;;;;70.20;32.63;;;;;;;0.90;100.00;100395.88;6226052;23;20024;-78
2022/01/26 08:38:01;;;;;;;81.47;37.00;;;;;;;0.90;100.00;100401.19;6225926;23;20016;-79
2022/01/26 08:40:30;;;;;;;88.00;37.22;;;;;;;1.04;100.00;100413.50;6226031;23;20020;-79
2022/01/26 08:42:57;;;;;;;78.13;36.70;;;;;;;1.07;100.00;100401.06;6223698;23;20021;-78
2022/01/26 08:45:25;;;;;;;73.53;31.52;;;;;;;1.14;100.00;100405.44;6221784;23;20024;-79
2022/01/26 08:47:53;;;;;;;81.65;33.55;;;;;;;1.06;100.00;100399.31;6221320;23;20012;-78
2022/01/26 08:50:20;;;;;;;83.88;35.35;;;;;;;1.07;100.00;100405.50;6221600;23;20027;-78
2022/01/26 08:52:48;;;;;;;119.25;55.88;;;;;;;1.14;100.00;100400.13;6221838;23;20017;-78
2022/01/26 08:55:17;;;;;;;77.65;35.97;;;;;;;1.18;100.00;100392.09;6221700;23;20091;-79
2022/01/26 08:57:46;;;;;;;66.78;27.88;;;;;;;1.09;100.00;100388.63;6211282;23;20034;-78
2022/01/26 09:00:16;;;;;;;62.38;25.73;;;;;;;1.08;100.00;100389.53;6221175;23;20151;-78
2022/01/26 09:02:44;;;;;;;58.45;24.52;;;;;;;1.17;100.00;100393.88;6184869;23;20027;-79
2022/01/26 09:05:12;;;;;;;55.47;22.73;;;;;;;1.16;100.00;100400.09;6221540;23;20024;-79
2022/01/26 09:07:44;;;;;;;53.40;23.13;;;;;;;1.25;100.00;100412.44;6184930;23;20017;-81
2022/01/26 09:10:11;;;;;;;65.15;28.38;;;;;;;1.27;100.00;100394.66;6221714;23;20051;-79
2022/01/26 09:12:42;;;;;;;61.70;26.30;;;;;;;1.15;100.00;100390.34;6220524;23;20028;-78
2022/01/26 09:15:12;;;;;;;73.20;28.50;;;;;;;1.15;100.00;100391.22;6221566;23;20027;-80
2022/01/26 09:17:42;;;;;;;63.17;24.67;;;;;;;1.21;100.00;100389.41;6221688;23;20031;-79
2022/01/26 09:20:12;;;;;;;69.47;28.77;;;;;;;1.26;100.00;100388.47;6221430;23;20115;-78
2022/01/26 09:22:39;;;;;;;72.28;27.52;;;;;;;1.29;100.00;100395.53;6221196;23;20021;-80
2022/01/26 09:25:08;;;;;;;78.93;33.90;;;;;;;1.30;100.00;100378.66;6220947;23;20020;-77
2022/01/26 09:27:36;;;;;;;89.32;38.33;;;;;;;1.26;100.00;100388.47;6221326;23;20024;-77
2022/01/26 09:30:05;;;;;;;82.22;36.78;;;;;;;1.28;100.00;100383.13;6220569;23;20043;-78
2022/01/26 09:32:34;;;;;;;91.20;37.15;;;;;;;1.32;100.00;100381.34;6221542;23;20028;-77
2022/01/26 09:35:01;;;;;;;69.90;27.27;;;;;;;1.39;100.00;100377.72;6221174;23;20020;-78
2022/01/26 09:37:29;;;;;;;58.30;24.42;;;;;;;1.36;100.00;100381.25;6221261;23;20025;-78
2022/01/26 09:39:57;;;;;;;60.28;22.77;;;;;;;1.33;100.00;100377.78;6211054;23;20067;-78
2022/01/26 09:42:25;;;;;;;66.72;24.05;;;;;;;1.42;100.00;100375.88;6221173;23;20056;-77
2022/01/26 09:44:52;;;;;;;55.58;23.20;;;;;;;1.45;100.00;100382.97;6221111;23;20416;-77
2022/01/26 09:47:21;;;;;;;67.20;24.70;;;;;;;1.40;100.00;100379.47;6221415;23;20020;-76
2022/01/26 09:49:51;;;;;;;62.15;25.10;;;;;;;1.42;100.00;100378.53;6220842;23;20021;-78
2022/01/26 09:52:23;;;;;;;61.63;24.50;;;;;;;1.43;100.00;100376.78;6221200;23;20012;-77
2022/01/26 09:54:50;;;;;;;64.28;24.88;;;;;;;1.52;100.00;100379.34;6220665;23;20043;-77
2022/01/26 09:57:18;;;;;;;61.25;25.25;;;;;;;1.53;100.00;100375.78;6220916;23;20025;-78
2022/01/26 09:59:45;;;;;;;62.70;26.05;;;;;;;1.50;100.00;100375.81;6220353;23;20020;-77
2022/01/26 10:02:21;;;;;;;68.88;26.13;;;;;;;1.55;100.00;100378.44;6221296;23;20017;-78
2022/01/26 10:04:58;;;;;;;75.65;28.50;;;;;;;1.51;100.00;100382.91;6220848;23;20020;-78
2022/01/26 10:07:30;;;;;;;66.97;25.45;;;;;;;1.51;100.00;100366.91;6220552;23;20447;-78
2022/01/26 10:10:29;;;;;;;68.38;27.92;;;;;;;1.42;100.00;100369.69;6220610;23;20021;-80
2022/01/26 10:15:56;;;;;;;66.47;27.63;;;;;;;1.47;100.00;100359.88;6221009;23;20025;-78
2022/01/26 10:18:24;;;;;;;64.88;29.05;;;;;;;1.50;100.00;100358.97;6221010;23;20028;-80
2022/01/26 10:20:54;;;;;;;73.70;31.52;;;;;;;1.55;100.00;100359.78;6221110;23;20025;-78
2022/01/26 10:23:23;;;;;;;67.40;28.30;;;;;;;1.48;100.00;100366.09;6220918;23;20456;-77
2022/01/26 10:26:02;;;;;;;64.28;28.15;;;;;;;1.49;100.00;100357.19;6220347;23;20062;-79
2022/01/26 10:28:41;;;;;;;63.28;27.23;;;;;;;1.50;100.00;100358.97;6220812;23;20017;-82
2022/01/26 10:31:15;;;;;;;62.95;27.00;;;;;;;1.51;100.00;100358.06;6220643;23;20020;-81
2022/01/26 10:33:56;;;;;;;63.80;25.55;;;;;;;1.59;100.00;100357.06;6220890;23;20031;-80
2022/01/26 10:36:26;;;;;;;64.93;26.25;;;;;;;1.57;100.00;100355.34;6220367;23;20022;-78
2022/01/26 10:39:00;;;;;;;56.17;23.50;;;;;;;1.61;100.00;100357.06;6221340;23;20024;-78
2022/01/26 10:41:28;;;;;;;47.55;22.85;;;;;;;1.51;100.00;100350.06;6222691;23;20025;-79
2022/01/26 10:43:57;;;;;;;55.30;26.63;;;;;;;1.43;100.00;100351.06;6222544;23;20025;-79
2022/01/26 10:46:30;;;;;;;74.13;34.85;;;;;;;1.36;100.00;100346.66;6222957;23;20463;-78
2022/01/26 10:49:09;;;;;;;71.53;32.72;;;;;;;1.33;100.00;100360.00;6222343;23;20028;-79
2022/01/26 10:51:53;;;;;;;79.97;36.13;;;;;;;1.36;100.00;100346.66;6186429;23;20012;-79
2022/01/26 10:54:35;;;;;;;67.78;32.70;;;;;;;1.36;100.00;100346.66;6222142;23;20075;-79
2022/01/26 10:57:04;;;;;;;59.05;27.15;;;;;;;1.47;100.00;100345.69;6223130;23;20080;-79
2022/01/26 10:59:34;;;;;;;56.28;26.15;;;;;;;1.47;100.00;100343.03;6222757;23;20024;-79
2022/01/26 11:02:02;;;;;;;54.70;26.35;;;;;;;1.47;100.00;100340.38;6222377;23;20021;-79
2022/01/26 11:04:30;;;;;;;42.88;21.13;;;;;;;1.54;100.00;100328.75;6224560;23;20103;-78
2022/01/26 11:06:59;;;;;;;44.55;21.35;;;;;;;1.47;100.00;100333.25;6225220;23;20028;-79
2022/01/26 11:09:30;;;;;;;42.88;19.50;;;;;;;1.46;100.00;100323.50;6225527;23;20016;-77
2022/01/26 11:12:01;;;;;;;42.42;19.05;;;;;;;1.43;100.00;100321.75;6225640;23;20522;-77
2022/01/26 11:14:39;;;;;;;49.53;21.80;;;;;;;1.44;100.00;100314.63;6225516;23;20012;-78
2022/01/26 11:17:07;;;;;;;67.82;25.88;;;;;;;1.37;100.00;100321.81;6225560;23;20024;-81
2022/01/26 11:19:43;;;;;;;67.20;25.75;;;;;;;1.34;100.00;100316.50;6225720;23;20027;-78
2022/01/26 11:22:13;;;;;;;73.70;33.07;;;;;;;1.48;100.00;100308.38;6225057;23;20040;-78
2022/01/26 11:24:45;;;;;;;82.63;35.08;;;;;;;1.46;100.00;100311.97;6225433;23;20016;-80
2022/01/26 11:27:14;;;;;;;66.85;28.73;;;;;;;1.50;100.00;100305.72;6225302;23;20026;-77
2022/01/26 11:29:46;;;;;;;61.75;27.23;;;;;;;1.48;100.00;100302.19;6225503;23;20020;-81
2022/01/26 11:32:19;;;;;;;45.80;20.40;;;;;;;1.53;100.00;100301.22;6188726;23;20024;-80
2022/01/26 11:34:50;;;;;;;82.57;32.75;;;;;;;1.56;100.00;100293.19;6225742;23;20373;-78
2022/01/26 11:37:27;;;;;;;90.00;39.58;;;;;;;1.51;100.00;100295.03;6225090;23;20056;-80
2022/01/26 11:45:34;;;;;;;39.28;16.95;;;;;;;1.59;100.00;100284.28;6225422;23;20020;-81
2022/01/26 11:48:05;;;;;;;38.90;16.67;;;;;;;1.56;100.00;100281.66;6225276;23;20020;-80
2022/01/26 11:50:33;;;;;;;36.20;16.23;;;;;;;1.45;100.00;100284.47;6224713;23;20074;-79
2022/01/26 11:53:04;;;;;;;40.38;16.85;;;;;;;1.59;100.00;100279.84;6225155;23;20027;-79
2022/01/26 11:55:39;;;;;;;48.13;19.80;;;;;;;1.54;100.00;100289.66;6225275;23;20083;-77
2022/01/26 11:58:09;;;;;;;44.97;18.88;;;;;;;1.55;100.00;100282.56;6225162;23;20028;-79
2022/01/26 12:00:43;;;;;;;44.88;17.85;;;;;;;1.68;100.00;100284.19;6225349;23;20025;-79
2022/01/26 12:03:25;;;;;;;43.25;18.40;;;;;;;1.52;100.00;100278.16;6225260;23;20017;-79
2022/01/26 12:05:57;;;;;;;77.50;34.55;;;;;;;1.59;100.00;100284.28;6224693;23;20348;-79
2022/01/26 12:08:35;;;;;;;77.50;36.30;;;;;;;1.55;100.00;100279.91;6225172;23;20070;-80
2022/01/26 12:11:03;;;;;;;68.35;30.40;;;;;;;1.62;100.00;100278.94;6225021;23;20020;-78
2022/01/26 12:13:32;;;;;;;69.03;32.80;;;;;;;1.70;100.00;100273.50;6224754;23;20027;-79
2022/01/26 12:16:06;;;;;;;84.18;40.60;;;;;;;1.63;100.00;100270.03;6224814;23;20020;-78
2022/01/26 12:18:38;;;;;;;63.05;30.85;;;;;;;1.62;100.00;100268.28;6188065;23;20348;-81
2022/01/26 12:35:24;;;;;;;35.63;18.83;;;;;;;1.76;100.00;100267.22;6224790;23;20318;-79
2022/01/26 12:38:05;;;;;;;41.15;19.92;;;;;;;1.74;100.00;100261.91;6224746;23;20075;-77
2022/01/26 12:43:36;;;;;;;82.10;33.08;;;;;;;1.77;100.00;100260.97;6224633;23;20055;-78
2022/01/26 12:46:05;;;;;;;87.15;32.95;;;;;;;1.63;100.00;100264.72;6224847;23;20518;-79
2022/01/26 12:48:34;;;;;;;101.18;37.63;;;;;;;1.61;100.00;100261.19;6224011;23;20225;-77
2022/01/26 12:51:03;;;;;;;63.00;26.95;;;;;;;1.64;100.00;100258.47;6224744;23;20020;-79
2022/01/26 12:53:32;;;;;;;96.00;35.03;;;;;;;1.72;100.00;100256.59;6225874;23;20017;-80
2022/01/26 12:56:03;;;;;;;98.32;37.30;;;;;;;1.69;100.00;100253.13;6215827;23;20058;-78